sensor_id;sensor_type;location;lat;lon;timestamp;P1;durP1;ratioP1;P2;durP2;ratioP2
13834;SDS011;6988;52.614;13.500;2024-01-06T00:02:27;75.63;;;43.20;;
13834;SDS011;6988;52.614;13.500;2024-01-06T00:07:18;71.90;;;41.17;;
13834;SDS011;6988;52.614;13.500;2024-01-06T00:12:10;69.00;;;40.13;;
13834;SDS011;6988;52.614;13.500;2024-01-06T00:17:03;67.00;;;38.80;;
13834;SDS011;6988;52.614;13.500;2024-01-06T00:21:56;67.67;;;40.30;;
13834;SDS011;6988;52.614;13.500;2024-01-06T00:26:48;70.87;;;40.17;;
13834;SDS011;6988;52.614;13.500;2024-01-06T00:31:40;63.90;;;39.13;;
13834;SDS011;6988;52.614;13.500;2024-01-06T00:36:31;68.43;;;39.17;;
13834;SDS011;6988;52.614;13.500;2024-01-06T00:41:25;66.43;;;39.47;;
13834;SDS011;6988;52.614;13.500;2024-01-06T00:46:16;64.40;;;39.60;;
13834;SDS011;6988;52.614;13.500;2024-01-06T00:51:22;69.90;;;39.43;;
13834;SDS011;6988;52.614;13.500;2024-01-06T00:56:14;61.47;;;38.80;;
13834;SDS011;6988;52.614;13.500;2024-01-06T01:01:07;59.80;;;37.93;;
13834;SDS011;6988;52.614;13.500;2024-01-06T01:05:59;66.73;;;38.30;;
13834;SDS011;6988;52.614;13.500;2024-01-06T01:10:51;63.40;;;38.57;;
13834;SDS011;6988;52.614;13.500;2024-01-06T01:15:43;65.63;;;38.93;;
13834;SDS011;6988;52.614;13.500;2024-01-06T01:20:36;68.37;;;40.30;;
13834;SDS011;6988;52.614;13.500;2024-01-06T01:25:28;65.10;;;38.07;;
13834;SDS011;6988;52.614;13.500;2024-01-06T01:30:20;58.37;;;36.23;;
13834;SDS011;6988;52.614;13.500;2024-01-06T01:35:11;61.33;;;37.17;;
13834;SDS011;6988;52.614;13.500;2024-01-06T01:40:06;60.47;;;37.43;;
13834;SDS011;6988;52.614;13.500;2024-01-06T01:44:58;64.30;;;38.63;;
13834;SDS011;6988;52.614;13.500;2024-01-06T01:49:50;67.50;;;39.37;;
13834;SDS011;6988;52.614;13.500;2024-01-06T01:54:45;64.17;;;38.77;;
13834;SDS011;6988;52.614;13.500;2024-01-06T01:59:40;66.37;;;38.77;;
13834;SDS011;6988;52.614;13.500;2024-01-06T02:04:32;74.50;;;41.73;;
13834;SDS011;6988;52.614;13.500;2024-01-06T02:09:24;68.63;;;39.33;;
13834;SDS011;6988;52.614;13.500;2024-01-06T02:14:19;67.47;;;39.90;;
13834;SDS011;6988;52.614;13.500;2024-01-06T02:19:12;72.07;;;41.47;;
13834;SDS011;6988;52.614;13.500;2024-01-06T02:24:07;69.47;;;40.17;;
13834;SDS011;6988;52.614;13.500;2024-01-06T02:28:59;74.47;;;40.43;;
13834;SDS011;6988;52.614;13.500;2024-01-06T02:33:51;71.97;;;40.87;;
13834;SDS011;6988;52.614;13.500;2024-01-06T02:38:43;70.53;;;40.40;;
13834;SDS011;6988;52.614;13.500;2024-01-06T02:43:36;70.33;;;39.00;;
13834;SDS011;6988;52.614;13.500;2024-01-06T02:48:27;70.23;;;39.13;;
13834;SDS011;6988;52.614;13.500;2024-01-06T02:53:20;74.47;;;40.23;;
13834;SDS011;6988;52.614;13.500;2024-01-06T02:58:12;71.33;;;39.87;;
13834;SDS011;6988;52.614;13.500;2024-01-06T03:03:05;68.10;;;39.43;;
13834;SDS011;6988;52.614;13.500;2024-01-06T03:07:57;62.83;;;37.40;;
13834;SDS011;6988;52.614;13.500;2024-01-06T03:12:49;63.87;;;37.67;;
13834;SDS011;6988;52.614;13.500;2024-01-06T03:17:41;64.27;;;38.30;;
13834;SDS011;6988;52.614;13.500;2024-01-06T03:22:34;67.07;;;38.37;;
13834;SDS011;6988;52.614;13.500;2024-01-06T03:27:25;66.47;;;39.10;;
13834;SDS011;6988;52.614;13.500;2024-01-06T03:32:17;67.80;;;38.07;;
13834;SDS011;6988;52.614;13.500;2024-01-06T03:37:09;69.80;;;38.67;;
13834;SDS011;6988;52.614;13.500;2024-01-06T03:42:02;71.47;;;38.77;;
13834;SDS011;6988;52.614;13.500;2024-01-06T03:46:54;72.20;;;40.20;;
13834;SDS011;6988;52.614;13.500;2024-01-06T03:51:46;72.20;;;39.60;;
13834;SDS011;6988;52.614;13.500;2024-01-06T03:56:38;73.30;;;41.27;;
13834;SDS011;6988;52.614;13.500;2024-01-06T04:01:31;81.23;;;42.07;;
13834;SDS011;6988;52.614;13.500;2024-01-06T04:06:24;75.67;;;40.03;;
13834;SDS011;6988;52.614;13.500;2024-01-06T04:11:16;79.50;;;41.13;;
13834;SDS011;6988;52.614;13.500;2024-01-06T04:16:08;73.30;;;41.03;;
13834;SDS011;6988;52.614;13.500;2024-01-06T04:21:01;81.60;;;42.20;;
13834;SDS011;6988;52.614;13.500;2024-01-06T04:25:53;75.77;;;41.80;;
13834;SDS011;6988;52.614;13.500;2024-01-06T04:30:45;85.37;;;44.17;;
13834;SDS011;6988;52.614;13.500;2024-01-06T04:35:36;80.50;;;41.43;;
13834;SDS011;6988;52.614;13.500;2024-01-06T04:40:29;78.63;;;41.87;;
13834;SDS011;6988;52.614;13.500;2024-01-06T04:45:21;74.90;;;40.23;;
13834;SDS011;6988;52.614;13.500;2024-01-06T04:50:14;73.00;;;39.73;;
13834;SDS011;6988;52.614;13.500;2024-01-06T04:55:06;77.77;;;40.20;;
13834;SDS011;6988;52.614;13.500;2024-01-06T04:59:59;73.80;;;38.53;;
13834;SDS011;6988;52.614;13.500;2024-01-06T05:04:51;76.57;;;40.47;;
13834;SDS011;6988;52.614;13.500;2024-01-06T05:09:43;73.90;;;39.07;;
13834;SDS011;6988;52.614;13.500;2024-01-06T05:14:34;82.20;;;39.77;;
13834;SDS011;6988;52.614;13.500;2024-01-06T05:19:27;80.37;;;38.43;;
13834;SDS011;6988;52.614;13.500;2024-01-06T05:24:19;82.60;;;39.63;;
13834;SDS011;6988;52.614;13.500;2024-01-06T05:29:11;82.10;;;40.47;;
13834;SDS011;6988;52.614;13.500;2024-01-06T05:34:03;78.33;;;39.87;;
13834;SDS011;6988;52.614;13.500;2024-01-06T05:38:56;73.17;;;39.43;;
13834;SDS011;6988;52.614;13.500;2024-01-06T05:43:48;74.53;;;38.43;;
13834;SDS011;6988;52.614;13.500;2024-01-06T05:48:40;83.23;;;40.23;;
13834;SDS011;6988;52.614;13.500;2024-01-06T05:53:32;87.07;;;40.37;;
13834;SDS011;6988;52.614;13.500;2024-01-06T05:58:25;81.97;;;41.23;;
13834;SDS011;6988;52.614;13.500;2024-01-06T06:03:16;86.53;;;43.13;;
13834;SDS011;6988;52.614;13.500;2024-01-06T06:08:08;81.87;;;39.33;;
13834;SDS011;6988;52.614;13.500;2024-01-06T06:13:00;86.40;;;40.97;;
13834;SDS011;6988;52.614;13.500;2024-01-06T06:17:53;85.37;;;41.80;;
13834;SDS011;6988;52.614;13.500;2024-01-06T06:22:45;86.37;;;41.10;;
13834;SDS011;6988;52.614;13.500;2024-01-06T06:27:37;92.70;;;43.83;;
13834;SDS011;6988;52.614;13.500;2024-01-06T06:32:29;90.83;;;42.50;;
13834;SDS011;6988;52.614;13.500;2024-01-06T06:37:22;91.77;;;41.97;;
13834;SDS011;6988;52.614;13.500;2024-01-06T06:42:14;97.17;;;44.37;;
13834;SDS011;6988;52.614;13.500;2024-01-06T06:47:05;89.23;;;43.40;;
13834;SDS011;6988;52.614;13.500;2024-01-06T06:51:57;94.20;;;43.30;;
13834;SDS011;6988;52.614;13.500;2024-01-06T06:56:51;97.00;;;42.57;;
13834;SDS011;6988;52.614;13.500;2024-01-06T07:01:42;96.67;;;47.60;;
13834;SDS011;6988;52.614;13.500;2024-01-06T07:06:34;89.13;;;44.80;;
13834;SDS011;6988;52.614;13.500;2024-01-06T07:11:26;89.50;;;44.90;;
13834;SDS011;6988;52.614;13.500;2024-01-06T07:16:19;89.43;;;44.30;;
13834;SDS011;6988;52.614;13.500;2024-01-06T07:21:11;95.30;;;44.43;;
13834;SDS011;6988;52.614;13.500;2024-01-06T07:26:03;96.30;;;45.10;;
13834;SDS011;6988;52.614;13.500;2024-01-06T07:30:55;98.40;;;44.30;;
13834;SDS011;6988;52.614;13.500;2024-01-06T07:35:48;93.43;;;47.23;;
13834;SDS011;6988;52.614;13.500;2024-01-06T07:40:41;92.77;;;44.57;;
13834;SDS011;6988;52.614;13.500;2024-01-06T07:45:34;98.30;;;46.87;;
13834;SDS011;6988;52.614;13.500;2024-01-06T07:50:25;96.20;;;43.30;;
13834;SDS011;6988;52.614;13.500;2024-01-06T07:55:19;101.63;;;48.43;;
13834;SDS011;6988;52.614;13.500;2024-01-06T08:00:12;102.53;;;48.80;;
13834;SDS011;6988;52.614;13.500;2024-01-06T08:05:04;106.83;;;46.20;;
13834;SDS011;6988;52.614;13.500;2024-01-06T08:09:57;104.33;;;49.70;;
13834;SDS011;6988;52.614;13.500;2024-01-06T08:14:50;104.93;;;46.67;;
13834;SDS011;6988;52.614;13.500;2024-01-06T08:19:41;119.40;;;53.30;;
13834;SDS011;6988;52.614;13.500;2024-01-06T08:24:33;107.43;;;50.77;;
13834;SDS011;6988;52.614;13.500;2024-01-06T08:29:25;103.73;;;48.43;;
13834;SDS011;6988;52.614;13.500;2024-01-06T08:34:18;104.87;;;46.60;;
13834;SDS011;6988;52.614;13.500;2024-01-06T08:39:10;102.60;;;49.73;;
13834;SDS011;6988;52.614;13.500;2024-01-06T08:44:03;102.57;;;46.77;;
13834;SDS011;6988;52.614;13.500;2024-01-06T08:48:55;109.50;;;49.57;;
13834;SDS011;6988;52.614;13.500;2024-01-06T08:53:49;100.13;;;47.03;;
13834;SDS011;6988;52.614;13.500;2024-01-06T08:58:41;95.60;;;49.50;;
13834;SDS011;6988;52.614;13.500;2024-01-06T09:03:33;105.20;;;47.17;;
13834;SDS011;6988;52.614;13.500;2024-01-06T09:08:25;100.17;;;46.83;;
13834;SDS011;6988;52.614;13.500;2024-01-06T09:13:18;88.00;;;44.13;;
13834;SDS011;6988;52.614;13.500;2024-01-06T09:18:11;92.67;;;45.77;;
13834;SDS011;6988;52.614;13.500;2024-01-06T09:23:03;94.77;;;46.67;;
13834;SDS011;6988;52.614;13.500;2024-01-06T09:27:55;93.63;;;49.43;;
13834;SDS011;6988;52.614;13.500;2024-01-06T09:32:50;90.77;;;47.43;;
13834;SDS011;6988;52.614;13.500;2024-01-06T09:37:42;86.00;;;44.67;;
13834;SDS011;6988;52.614;13.500;2024-01-06T09:42:34;83.40;;;44.97;;
13834;SDS011;6988;52.614;13.500;2024-01-06T09:47:25;81.50;;;44.67;;
13834;SDS011;6988;52.614;13.500;2024-01-06T09:52:26;83.23;;;44.57;;
13834;SDS011;6988;52.614;13.500;2024-01-06T09:57:23;73.40;;;39.90;;
13834;SDS011;6988;52.614;13.500;2024-01-06T10:02:16;72.07;;;41.93;;
13834;SDS011;6988;52.614;13.500;2024-01-06T10:07:08;76.67;;;44.83;;
13834;SDS011;6988;52.614;13.500;2024-01-06T10:12:05;66.40;;;40.37;;
13834;SDS011;6988;52.614;13.500;2024-01-06T10:16:58;76.50;;;43.00;;
13834;SDS011;6988;52.614;13.500;2024-01-06T10:21:50;67.07;;;41.47;;
13834;SDS011;6988;52.614;13.500;2024-01-06T10:26:42;67.73;;;39.77;;
13834;SDS011;6988;52.614;13.500;2024-01-06T10:31:35;71.77;;;45.70;;
13834;SDS011;6988;52.614;13.500;2024-01-06T10:36:27;74.17;;;42.93;;
13834;SDS011;6988;52.614;13.500;2024-01-06T10:41:21;70.20;;;44.43;;
13834;SDS011;6988;52.614;13.500;2024-01-06T10:46:15;67.30;;;42.60;;
13834;SDS011;6988;52.614;13.500;2024-01-06T10:51:12;67.40;;;41.77;;
13834;SDS011;6988;52.614;13.500;2024-01-06T10:56:06;65.20;;;40.57;;
13834;SDS011;6988;52.614;13.500;2024-01-06T11:00:59;66.77;;;44.27;;
13834;SDS011;6988;52.614;13.500;2024-01-06T11:05:52;60.03;;;38.20;;
13834;SDS011;6988;52.614;13.500;2024-01-06T11:10:45;59.33;;;39.03;;
13834;SDS011;6988;52.614;13.500;2024-01-06T11:15:44;60.80;;;38.70;;
13834;SDS011;6988;52.614;13.500;2024-01-06T11:20:38;73.70;;;42.33;;
13834;SDS011;6988;52.614;13.500;2024-01-06T11:25:59;64.87;;;43.47;;
13834;SDS011;6988;52.614;13.500;2024-01-06T11:31:04;63.87;;;40.00;;
13834;SDS011;6988;52.614;13.500;2024-01-06T11:36:00;56.83;;;40.37;;
13834;SDS011;6988;52.614;13.500;2024-01-06T11:40:53;60.10;;;37.67;;
13834;SDS011;6988;52.614;13.500;2024-01-06T11:45:46;61.40;;;38.73;;
13834;SDS011;6988;52.614;13.500;2024-01-06T11:50:38;58.30;;;39.77;;
13834;SDS011;6988;52.614;13.500;2024-01-06T11:55:31;56.03;;;36.10;;
13834;SDS011;6988;52.614;13.500;2024-01-06T12:00:25;54.87;;;36.33;;
13834;SDS011;6988;52.614;13.500;2024-01-06T12:05:18;54.23;;;36.17;;
13834;SDS011;6988;52.614;13.500;2024-01-06T12:10:10;50.57;;;34.50;;
13834;SDS011;6988;52.614;13.500;2024-01-06T12:15:04;50.53;;;35.83;;
13834;SDS011;6988;52.614;13.500;2024-01-06T12:19:59;53.53;;;37.17;;
13834;SDS011;6988;52.614;13.500;2024-01-06T12:24:52;52.90;;;35.97;;
13834;SDS011;6988;52.614;13.500;2024-01-06T12:29:44;50.67;;;35.37;;
13834;SDS011;6988;52.614;13.500;2024-01-06T12:34:36;54.13;;;38.63;;
13834;SDS011;6988;52.614;13.500;2024-01-06T12:39:29;47.97;;;34.43;;
13834;SDS011;6988;52.614;13.500;2024-01-06T12:44:23;47.93;;;32.60;;
13834;SDS011;6988;52.614;13.500;2024-01-06T12:49:15;45.03;;;32.57;;
13834;SDS011;6988;52.614;13.500;2024-01-06T12:54:07;44.47;;;30.93;;
13834;SDS011;6988;52.614;13.500;2024-01-06T12:58:58;47.30;;;33.70;;
13834;SDS011;6988;52.614;13.500;2024-01-06T13:03:52;48.03;;;32.40;;
13834;SDS011;6988;52.614;13.500;2024-01-06T13:08:44;41.97;;;30.83;;
13834;SDS011;6988;52.614;13.500;2024-01-06T13:13:36;39.37;;;29.50;;
13834;SDS011;6988;52.614;13.500;2024-01-06T13:18:28;40.93;;;29.47;;
13834;SDS011;6988;52.614;13.500;2024-01-06T13:23:21;39.47;;;29.27;;
13834;SDS011;6988;52.614;13.500;2024-01-06T13:28:13;42.47;;;30.53;;
13834;SDS011;6988;52.614;13.500;2024-01-06T13:33:05;38.00;;;26.50;;
13834;SDS011;6988;52.614;13.500;2024-01-06T13:37:57;39.43;;;27.93;;
13834;SDS011;6988;52.614;13.500;2024-01-06T13:42:50;39.23;;;28.93;;
13834;SDS011;6988;52.614;13.500;2024-01-06T13:47:43;40.67;;;29.40;;
13834;SDS011;6988;52.614;13.500;2024-01-06T13:52:35;43.87;;;32.37;;
13834;SDS011;6988;52.614;13.500;2024-01-06T13:57:27;41.33;;;29.27;;
13834;SDS011;6988;52.614;13.500;2024-01-06T14:02:20;36.33;;;26.37;;
13834;SDS011;6988;52.614;13.500;2024-01-06T14:07:12;36.53;;;25.97;;
13834;SDS011;6988;52.614;13.500;2024-01-06T14:12:04;35.50;;;25.77;;
13834;SDS011;6988;52.614;13.500;2024-01-06T14:16:57;35.90;;;25.80;;
13834;SDS011;6988;52.614;13.500;2024-01-06T14:21:51;33.40;;;24.33;;
13834;SDS011;6988;52.614;13.500;2024-01-06T14:26:43;30.50;;;22.43;;
13834;SDS011;6988;52.614;13.500;2024-01-06T14:31:34;29.50;;;21.47;;
13834;SDS011;6988;52.614;13.500;2024-01-06T14:36:26;25.30;;;18.67;;
13834;SDS011;6988;52.614;13.500;2024-01-06T14:41:19;21.93;;;16.17;;
13834;SDS011;6988;52.614;13.500;2024-01-06T14:46:11;23.23;;;17.83;;
13834;SDS011;6988;52.614;13.500;2024-01-06T14:51:03;21.10;;;14.30;;
13834;SDS011;6988;52.614;13.500;2024-01-06T14:55:55;20.03;;;13.30;;
13834;SDS011;6988;52.614;13.500;2024-01-06T15:00:48;20.13;;;14.00;;
13834;SDS011;6988;52.614;13.500;2024-01-06T15:05:40;17.63;;;12.67;;
13834;SDS011;6988;52.614;13.500;2024-01-06T15:10:32;16.20;;;12.10;;
13834;SDS011;6988;52.614;13.500;2024-01-06T15:15:24;17.27;;;12.23;;
13834;SDS011;6988;52.614;13.500;2024-01-06T15:20:17;19.07;;;12.70;;
13834;SDS011;6988;52.614;13.500;2024-01-06T15:25:09;15.87;;;11.37;;
13834;SDS011;6988;52.614;13.500;2024-01-06T15:30:01;16.93;;;11.70;;
13834;SDS011;6988;52.614;13.500;2024-01-06T15:34:56;18.53;;;13.00;;
13834;SDS011;6988;52.614;13.500;2024-01-06T15:39:50;17.43;;;12.37;;
13834;SDS011;6988;52.614;13.500;2024-01-06T15:44:42;16.57;;;11.47;;
13834;SDS011;6988;52.614;13.500;2024-01-06T15:49:34;14.60;;;10.33;;
13834;SDS011;6988;52.614;13.500;2024-01-06T15:54:26;14.73;;;10.73;;
13834;SDS011;6988;52.614;13.500;2024-01-06T15:59:20;16.43;;;11.17;;
13834;SDS011;6988;52.614;13.500;2024-01-06T16:04:12;16.43;;;10.17;;
13834;SDS011;6988;52.614;13.500;2024-01-06T16:09:04;14.57;;;10.47;;
13834;SDS011;6988;52.614;13.500;2024-01-06T16:13:56;15.10;;;10.13;;
13834;SDS011;6988;52.614;13.500;2024-01-06T16:18:49;14.23;;;10.07;;
13834;SDS011;6988;52.614;13.500;2024-01-06T16:23:41;13.40;;;10.33;;
13834;SDS011;6988;52.614;13.500;2024-01-06T16:28:32;14.33;;;10.63;;
13834;SDS011;6988;52.614;13.500;2024-01-06T16:33:24;13.90;;;10.17;;
13834;SDS011;6988;52.614;13.500;2024-01-06T16:38:18;13.57;;;10.43;;
13834;SDS011;6988;52.614;13.500;2024-01-06T16:43:10;12.80;;;9.83;;
13834;SDS011;6988;52.614;13.500;2024-01-06T16:48:02;13.17;;;9.90;;
13834;SDS011;6988;52.614;13.500;2024-01-06T16:52:55;14.60;;;9.63;;
13834;SDS011;6988;52.614;13.500;2024-01-06T16:57:48;12.90;;;9.07;;
13834;SDS011;6988;52.614;13.500;2024-01-06T17:02:39;11.13;;;8.70;;
13834;SDS011;6988;52.614;13.500;2024-01-06T17:07:31;14.03;;;8.77;;
13834;SDS011;6988;52.614;13.500;2024-01-06T17:12:23;12.77;;;9.50;;
13834;SDS011;6988;52.614;13.500;2024-01-06T17:17:17;13.97;;;9.60;;
13834;SDS011;6988;52.614;13.500;2024-01-06T17:22:08;12.10;;;9.57;;
13834;SDS011;6988;52.614;13.500;2024-01-06T17:27:00;15.47;;;10.40;;
13834;SDS011;6988;52.614;13.500;2024-01-06T17:31:52;13.10;;;9.83;;
13834;SDS011;6988;52.614;13.500;2024-01-06T17:36:46;12.23;;;9.63;;
13834;SDS011;6988;52.614;13.500;2024-01-06T17:41:38;11.50;;;9.80;;
13834;SDS011;6988;52.614;13.500;2024-01-06T17:46:30;13.73;;;10.47;;
13834;SDS011;6988;52.614;13.500;2024-01-06T17:51:22;15.13;;;11.47;;
13834;SDS011;6988;52.614;13.500;2024-01-06T17:56:17;14.87;;;10.93;;
13834;SDS011;6988;52.614;13.500;2024-01-06T18:01:09;15.90;;;11.97;;
13834;SDS011;6988;52.614;13.500;2024-01-06T18:06:01;16.63;;;12.53;;
13834;SDS011;6988;52.614;13.500;2024-01-06T18:10:53;14.43;;;11.37;;
13834;SDS011;6988;52.614;13.500;2024-01-06T18:15:46;15.23;;;11.73;;
13834;SDS011;6988;52.614;13.500;2024-01-06T18:20:38;16.63;;;11.73;;
13834;SDS011;6988;52.614;13.500;2024-01-06T18:25:33;13.70;;;11.00;;
13834;SDS011;6988;52.614;13.500;2024-01-06T18:30:25;13.20;;;10.40;;
13834;SDS011;6988;52.614;13.500;2024-01-06T18:35:18;14.17;;;10.90;;
13834;SDS011;6988;52.614;13.500;2024-01-06T18:40:12;15.80;;;11.53;;
13834;SDS011;6988;52.614;13.500;2024-01-06T18:45:04;14.07;;;10.37;;
13834;SDS011;6988;52.614;13.500;2024-01-06T18:49:57;12.90;;;10.10;;
13834;SDS011;6988;52.614;13.500;2024-01-06T18:54:50;12.27;;;10.20;;
13834;SDS011;6988;52.614;13.500;2024-01-06T18:59:42;12.37;;;9.50;;
13834;SDS011;6988;52.614;13.500;2024-01-06T19:04:34;12.80;;;10.57;;
13834;SDS011;6988;52.614;13.500;2024-01-06T19:09:26;13.47;;;10.17;;
13834;SDS011;6988;52.614;13.500;2024-01-06T19:14:20;11.83;;;9.17;;
13834;SDS011;6988;52.614;13.500;2024-01-06T19:19:12;11.30;;;9.30;;
13834;SDS011;6988;52.614;13.500;2024-01-06T19:24:03;12.17;;;9.60;;
13834;SDS011;6988;52.614;13.500;2024-01-06T19:28:56;11.47;;;9.47;;
13834;SDS011;6988;52.614;13.500;2024-01-06T19:33:49;12.47;;;9.57;;
13834;SDS011;6988;52.614;13.500;2024-01-06T19:38:42;12.07;;;8.83;;
13834;SDS011;6988;52.614;13.500;2024-01-06T19:43:34;11.77;;;9.33;;
13834;SDS011;6988;52.614;13.500;2024-01-06T19:48:25;10.53;;;8.40;;
13834;SDS011;6988;52.614;13.500;2024-01-06T19:53:18;10.23;;;8.00;;
13834;SDS011;6988;52.614;13.500;2024-01-06T19:58:10;10.37;;;8.60;;
13834;SDS011;6988;52.614;13.500;2024-01-06T20:03:03;11.67;;;7.87;;
13834;SDS011;6988;52.614;13.500;2024-01-06T20:07:55;12.67;;;8.40;;
13834;SDS011;6988;52.614;13.500;2024-01-06T20:12:49;11.50;;;8.27;;
13834;SDS011;6988;52.614;13.500;2024-01-06T20:17:41;9.00;;;7.00;;
13834;SDS011;6988;52.614;13.500;2024-01-06T20:22:33;9.20;;;6.90;;
13834;SDS011;6988;52.614;13.500;2024-01-06T20:27:25;8.10;;;6.53;;
13834;SDS011;6988;52.614;13.500;2024-01-06T20:32:18;8.97;;;6.50;;
13834;SDS011;6988;52.614;13.500;2024-01-06T20:37:10;8.13;;;6.00;;
13834;SDS011;6988;52.614;13.500;2024-01-06T20:42:02;7.33;;;5.20;;
13834;SDS011;6988;52.614;13.500;2024-01-06T20:46:56;7.00;;;5.40;;
13834;SDS011;6988;52.614;13.500;2024-01-06T20:51:51;8.60;;;5.20;;
13834;SDS011;6988;52.614;13.500;2024-01-06T20:56:45;8.00;;;5.40;;
13834;SDS011;6988;52.614;13.500;2024-01-06T21:01:37;6.63;;;4.43;;
13834;SDS011;6988;52.614;13.500;2024-01-06T21:06:29;6.13;;;4.47;;
13834;SDS011;6988;52.614;13.500;2024-01-06T21:11:22;5.90;;;4.20;;
13834;SDS011;6988;52.614;13.500;2024-01-06T21:16:14;6.93;;;4.20;;
13834;SDS011;6988;52.614;13.500;2024-01-06T21:21:07;5.47;;;4.33;;
13834;SDS011;6988;52.614;13.500;2024-01-06T21:25:59;7.30;;;4.30;;
13834;SDS011;6988;52.614;13.500;2024-01-06T21:30:55;5.87;;;4.10;;
13834;SDS011;6988;52.614;13.500;2024-01-06T21:35:47;6.00;;;4.00;;
13834;SDS011;6988;52.614;13.500;2024-01-06T21:40:39;5.33;;;3.87;;
13834;SDS011;6988;52.614;13.500;2024-01-06T21:45:32;6.13;;;4.07;;
13834;SDS011;6988;52.614;13.500;2024-01-06T21:50:25;6.07;;;4.07;;
13834;SDS011;6988;52.614;13.500;2024-01-06T21:55:19;6.10;;;4.20;;
13834;SDS011;6988;52.614;13.500;2024-01-06T22:00:11;6.27;;;3.87;;
13834;SDS011;6988;52.614;13.500;2024-01-06T22:05:06;5.13;;;3.37;;
13834;SDS011;6988;52.614;13.500;2024-01-06T22:09:59;8.20;;;3.80;;
13834;SDS011;6988;52.614;13.500;2024-01-06T22:14:51;5.77;;;4.10;;
13834;SDS011;6988;52.614;13.500;2024-01-06T22:19:43;5.77;;;3.50;;
13834;SDS011;6988;52.614;13.500;2024-01-06T22:24:35;4.93;;;3.37;;
13834;SDS011;6988;52.614;13.500;2024-01-06T22:29:28;6.40;;;3.50;;
13834;SDS011;6988;52.614;13.500;2024-01-06T22:34:20;5.57;;;3.77;;
13834;SDS011;6988;52.614;13.500;2024-01-06T22:39:11;7.03;;;3.67;;
13834;SDS011;6988;52.614;13.500;2024-01-06T22:44:05;5.77;;;4.07;;
13834;SDS011;6988;52.614;13.500;2024-01-06T23:03:59;5.13;;;3.73;;
13834;SDS011;6988;52.614;13.500;2024-01-06T23:08:51;5.83;;;4.13;;
13834;SDS011;6988;52.614;13.500;2024-01-06T23:13:43;5.33;;;3.73;;
13834;SDS011;6988;52.614;13.500;2024-01-06T23:18:35;5.13;;;3.80;;
13834;SDS011;6988;52.614;13.500;2024-01-06T23:23:28;7.73;;;4.37;;
13834;SDS011;6988;52.614;13.500;2024-01-06T23:28:20;7.83;;;4.70;;
13834;SDS011;6988;52.614;13.500;2024-01-06T23:33:12;8.73;;;5.23;;
13834;SDS011;6988;52.614;13.500;2024-01-06T23:38:04;8.20;;;5.47;;
13834;SDS011;6988;52.614;13.500;2024-01-06T23:42:57;8.90;;;5.10;;
13834;SDS011;6988;52.614;13.500;2024-01-06T23:47:49;7.87;;;5.70;;
13834;SDS011;6988;52.614;13.500;2024-01-06T23:52:41;9.33;;;5.40;;
13834;SDS011;6988;52.614;13.500;2024-01-06T23:57:33;8.60;;;5.80;;
